createdAt,value
2018-12-28T00:02:28.221Z,5.35
2018-12-28T00:04:56.910Z,5.36
2018-12-28T00:07:25.454Z,5.34
2018-12-28T00:09:53.935Z,5.35
2018-12-28T00:12:22.456Z,5.33
2018-12-28T00:14:50.924Z,5.34
2018-12-28T00:17:19.489Z,5.34
2018-12-28T00:19:47.974Z,5.32
2018-12-28T00:22:16.446Z,5.29
2018-12-28T00:24:45.182Z,5.28
2018-12-28T00:27:13.652Z,5.26
2018-12-28T00:29:42.130Z,5.25
2018-12-28T00:32:10.650Z,5.24
2018-12-28T00:34:39.114Z,5.23
2018-12-28T00:37:07.946Z,5.23
2018-12-28T00:39:36.475Z,5.21
2018-12-28T00:42:05.992Z,5.20
2018-12-28T00:44:34.584Z,5.17
2018-12-28T00:47:02.888Z,5.14
2018-12-28T00:49:31.593Z,5.12
2018-12-28T00:52:00.061Z,5.11
2018-12-28T00:54:28.537Z,5.10
2018-12-28T00:56:57.051Z,5.09
2018-12-28T00:59:25.601Z,5.07
2018-12-28T01:01:54.322Z,5.07
2018-12-28T01:04:22.809Z,5.06
2018-12-28T01:06:52.289Z,5.06
2018-12-28T01:09:20.789Z,5.04
2018-12-28T01:11:49.256Z,5.03
2018-12-28T01:14:17.807Z,5.00
2018-12-28T01:16:46.361Z,4.98
2018-12-28T01:19:14.880Z,4.97
2018-12-28T01:21:43.457Z,4.94
2018-12-28T01:24:11.950Z,4.93
2018-12-28T01:26:40.611Z,4.91
2018-12-28T01:29:10.064Z,4.91
2018-12-28T01:31:38.560Z,4.90
2018-12-28T01:34:07.266Z,4.90
2018-12-28T01:36:35.682Z,4.91
2018-12-28T01:39:05.701Z,4.92
2018-12-28T01:41:34.289Z,4.91
2018-12-28T01:44:02.771Z,4.89
2018-12-28T01:46:31.678Z,4.87
2018-12-28T01:49:00.148Z,4.82
2018-12-28T01:51:29.729Z,4.80
2018-12-28T01:53:58.310Z,4.79
2018-12-28T01:56:26.781Z,4.75
2018-12-28T01:58:55.536Z,4.71
2018-12-28T02:01:24.019Z,4.67
2018-12-28T02:03:52.569Z,4.66
2018-12-28T02:06:21.107Z,4.63
2018-12-28T02:08:49.588Z,4.63
2018-12-28T02:11:18.156Z,4.61
2018-12-28T02:13:46.622Z,4.59
2018-12-28T02:16:15.343Z,4.58
2018-12-28T02:18:43.812Z,4.57
2018-12-28T02:21:12.347Z,4.56
2018-12-28T02:23:40.873Z,4.56
2018-12-28T02:26:09.341Z,4.55
2018-12-28T02:28:39.091Z,4.54
2018-12-28T02:31:08.478Z,4.54
2018-12-28T02:33:36.957Z,4.54
2018-12-28T02:36:05.527Z,4.53
2018-12-28T02:38:34.014Z,4.53
2018-12-28T02:41:02.652Z,4.54
2018-12-28T02:43:31.141Z,4.53
2018-12-28T02:45:59.688Z,4.53
2018-12-28T02:48:28.202Z,4.53
2018-12-28T02:50:56.681Z,4.52
2018-12-28T02:53:25.489Z,4.52
2018-12-28T02:55:54.939Z,4.52
2018-12-28T02:58:23.488Z,4.52
2018-12-28T03:00:54.496Z,4.50
2018-12-28T03:03:23.970Z,4.50
2018-12-28T03:05:59.506Z,4.48
2018-12-28T03:08:27.981Z,4.47
2018-12-28T03:10:56.628Z,4.47
2018-12-28T03:13:25.145Z,4.48
2018-12-28T03:15:53.692Z,4.48
2018-12-28T03:18:22.185Z,4.46
2018-12-28T03:20:50.708Z,4.45
2018-12-28T03:23:19.281Z,4.46
2018-12-28T03:25:47.738Z,4.47
2018-12-28T03:28:16.469Z,4.48
2018-12-28T03:30:44.977Z,4.48
2018-12-28T03:33:13.450Z,4.47
2018-12-28T03:35:41.984Z,4.47
2018-12-28T03:38:10.452Z,4.48
2018-12-28T03:40:38.996Z,4.47
2018-12-28T03:43:07.497Z,4.47
2018-12-28T03:45:36.043Z,4.48
2018-12-28T03:48:04.646Z,4.48
2018-12-28T03:50:33.275Z,4.49
2018-12-28T03:53:01.958Z,4.49
2018-12-28T03:55:30.416Z,4.49
2018-12-28T03:57:58.886Z,4.49
2018-12-28T04:00:27.732Z,4.48
2018-12-28T04:02:56.280Z,4.49
2018-12-28T04:05:24.900Z,4.49
2018-12-28T04:07:53.364Z,4.49
2018-12-28T04:10:22.773Z,4.49
2018-12-28T04:12:51.368Z,4.48
2018-12-28T04:15:19.903Z,4.50
2018-12-28T04:17:48.452Z,4.50
2018-12-28T04:20:16.935Z,4.51
2018-12-28T04:22:45.424Z,4.53
2018-12-28T04:25:13.999Z,4.52
2018-12-28T04:27:42.557Z,4.51
2018-12-28T04:30:11.108Z,4.52
2018-12-28T04:32:39.653Z,4.53
2018-12-28T04:35:09.027Z,4.52
2018-12-28T04:37:37.535Z,4.52
2018-12-28T04:40:09.182Z,4.51
2018-12-28T04:42:37.909Z,4.50
2018-12-28T04:45:06.474Z,4.50
2018-12-28T04:47:35.025Z,4.49
2018-12-28T04:50:03.685Z,4.49
2018-12-28T04:52:34.193Z,4.49
2018-12-28T04:55:03.010Z,4.49
2018-12-28T04:57:33.746Z,4.50
2018-12-28T05:00:04.130Z,4.50
2018-12-28T05:02:35.114Z,4.49
2018-12-28T05:05:35.069Z,4.50
2018-12-28T05:08:18.853Z,4.52
2018-12-28T05:10:55.880Z,4.53
2018-12-28T05:13:36.085Z,4.54
2018-12-28T05:16:07.622Z,4.54
2018-12-28T05:18:48.233Z,4.54
2018-12-28T05:21:38.409Z,4.53
2018-12-28T05:24:35.112Z,4.53
2018-12-28T05:27:06.652Z,4.51
2018-12-28T05:29:56.743Z,4.49
2018-12-28T05:32:25.378Z,4.47
2018-12-28T05:34:54.056Z,4.45
2018-12-28T05:37:22.852Z,4.45
2018-12-28T05:39:51.489Z,4.45
2018-12-28T05:42:20.296Z,4.45
2018-12-28T05:44:48.909Z,4.46
2018-12-28T05:47:17.509Z,4.44
2018-12-28T05:49:46.097Z,4.44
2018-12-28T05:52:14.647Z,4.43
2018-12-28T05:54:44.386Z,4.43
2018-12-28T05:57:13.962Z,4.42
2018-12-28T05:59:42.537Z,4.43
2018-12-28T06:02:11.127Z,4.43
2018-12-28T06:04:39.665Z,4.44
2018-12-28T06:07:08.424Z,4.43
2018-12-28T06:09:36.912Z,4.44
2018-12-28T06:12:08.262Z,4.44
2018-12-28T06:14:36.786Z,4.46
2018-12-28T06:17:05.511Z,4.45
2018-12-28T06:19:34.128Z,4.46
2018-12-28T06:22:02.940Z,4.46
2018-12-28T06:24:31.484Z,4.47
2018-12-28T06:27:00.038Z,4.47
2018-12-28T06:29:28.829Z,4.46
2018-12-28T06:31:57.315Z,4.46
2018-12-28T06:34:25.885Z,4.47
2018-12-28T06:36:54.470Z,4.46
2018-12-28T06:39:23.017Z,4.48
2018-12-28T06:41:51.744Z,4.47
2018-12-28T06:44:20.355Z,4.48
2018-12-28T06:46:48.912Z,4.48
2018-12-28T06:49:17.774Z,4.47
2018-12-28T06:51:46.328Z,4.47
2018-12-28T06:54:51.318Z,4.47
2018-12-28T06:57:25.359Z,4.47
2018-12-28T07:00:32.389Z,4.47
2018-12-28T07:03:15.689Z,4.47
2018-12-28T07:06:22.306Z,4.46
2018-12-28T07:09:19.662Z,4.44
2018-12-28T07:12:08.769Z,4.43
2018-12-28T07:14:57.615Z,4.42
2018-12-28T07:18:02.473Z,4.41
2018-12-28T07:20:50.201Z,4.41
2018-12-28T07:23:24.775Z,4.38
2018-12-28T07:26:11.627Z,4.24
2018-12-28T07:28:55.070Z,4.17
2018-12-28T07:31:35.540Z,4.13
2018-12-28T07:34:22.366Z,4.09
2018-12-28T07:37:11.941Z,4.08
2018-12-28T07:39:46.299Z,4.07
2018-12-28T07:42:29.661Z,4.07
2018-12-28T07:45:09.820Z,4.07
2018-12-28T07:47:47.287Z,4.07
2018-12-28T07:50:35.348Z,4.09
2018-12-28T07:53:21.543Z,4.11
2018-12-28T07:56:12.750Z,4.10
2018-12-28T07:59:11.166Z,4.13
2018-12-28T08:01:57.950Z,4.12
2018-12-28T08:04:35.239Z,4.14
2018-12-28T08:07:31.120Z,4.14
2018-12-28T08:10:23.777Z,4.15
2018-12-28T08:13:11.837Z,4.15
2018-12-28T08:15:49.251Z,4.16
2018-12-28T08:18:38.894Z,4.18
2018-12-28T08:21:28.421Z,4.17
2018-12-28T08:24:21.224Z,4.17
2018-12-28T08:27:13.366Z,4.17
2018-12-28T08:30:04.914Z,4.17
2018-12-28T08:32:51.457Z,4.19
2018-12-28T08:35:39.627Z,4.18
2018-12-28T08:38:11.137Z,4.20
2018-12-28T08:40:43.670Z,4.19
2018-12-28T08:43:33.590Z,4.21
2018-12-28T08:46:23.591Z,4.21
2018-12-28T08:49:01.300Z,4.21
2018-12-28T08:51:50.870Z,4.23
2018-12-28T08:54:42.282Z,4.22
2018-12-28T08:57:30.394Z,4.25
2018-12-28T09:00:16.862Z,4.26
2018-12-28T09:02:48.392Z,4.28
2018-12-28T09:05:38.230Z,4.28
2018-12-28T09:08:27.918Z,4.30
2018-12-28T09:11:08.249Z,4.30
2018-12-28T09:14:04.186Z,4.34
2018-12-28T09:16:35.775Z,4.35
2018-12-28T09:19:30.052Z,4.37
2018-12-28T09:22:02.573Z,4.39
2018-12-28T09:24:37.044Z,4.40
2018-12-28T09:27:26.871Z,4.42
2018-12-28T09:30:13.571Z,4.46
2018-12-28T09:33:00.366Z,4.47
2018-12-28T09:35:50.081Z,4.47
2018-12-28T09:38:34.118Z,4.50
2018-12-28T09:41:11.406Z,4.49
2018-12-28T09:43:57.984Z,4.51
2018-12-28T09:46:53.963Z,4.53
2018-12-28T09:49:29.734Z,4.54
2018-12-28T09:52:19.192Z,4.54
2018-12-28T09:54:50.746Z,4.55
2018-12-28T09:57:40.591Z,4.57
2018-12-28T10:00:27.237Z,4.57
2018-12-28T10:03:20.766Z,4.59
2018-12-28T10:05:58.797Z,4.61
2018-12-28T10:08:48.775Z,4.62
2018-12-28T10:11:41.422Z,4.61
2018-12-28T10:14:18.552Z,4.64
2018-12-28T10:16:47.269Z,4.65
2018-12-28T10:19:15.740Z,4.66
2018-12-28T10:21:44.557Z,4.68
2018-12-28T10:24:13.067Z,4.68
2018-12-28T10:26:41.537Z,4.69
2018-12-28T10:29:10.080Z,4.69
2018-12-28T10:31:38.602Z,4.70
2018-12-28T10:34:07.297Z,4.73
2018-12-28T10:36:39.836Z,4.75
2018-12-28T10:39:08.306Z,4.79
2018-12-28T10:41:38.758Z,4.79
2018-12-28T10:44:07.111Z,4.82
2018-12-28T10:46:35.839Z,4.84
2018-12-28T10:49:04.618Z,4.82
2018-12-28T10:51:33.305Z,4.83
2018-12-28T10:54:02.048Z,4.84
2018-12-28T10:56:30.931Z,4.83
2018-12-28T10:58:59.431Z,4.86
2018-12-28T11:01:27.895Z,4.87
2018-12-28T11:03:56.396Z,4.88
2018-12-28T11:06:24.851Z,4.90
2018-12-28T11:08:53.401Z,4.92
2018-12-28T11:11:21.874Z,4.91
2018-12-28T11:13:50.445Z,4.93
2018-12-28T11:16:18.959Z,4.93
2018-12-28T11:18:47.531Z,4.97
2018-12-28T11:21:16.048Z,4.98
2018-12-28T11:23:44.504Z,5.00
2018-12-28T11:26:12.996Z,5.04
2018-12-28T11:28:41.522Z,5.05
2018-12-28T11:31:10.008Z,5.07
2018-12-28T11:33:39.754Z,5.09
2018-12-28T11:36:10.224Z,5.11
2018-12-28T11:38:40.791Z,5.16
2018-12-28T11:41:09.369Z,5.20
2018-12-28T11:43:37.882Z,5.23
2018-12-28T11:46:06.551Z,5.25
2018-12-28T11:48:35.112Z,5.29
2018-12-28T11:51:03.731Z,5.32
2018-12-28T11:53:33.284Z,5.35
2018-12-28T11:56:01.983Z,5.37
2018-12-28T11:58:30.548Z,5.41
2018-12-28T12:01:00.146Z,5.42
2018-12-28T12:03:28.841Z,5.45
2018-12-28T12:05:57.327Z,5.47
2018-12-28T12:08:25.817Z,5.51
2018-12-28T12:10:54.520Z,5.52
2018-12-28T12:13:23.033Z,5.55
2018-12-28T12:15:51.525Z,5.54
2018-12-28T12:18:20.280Z,5.54
2018-12-28T12:20:48.764Z,5.56
2018-12-28T12:23:17.404Z,5.57
2018-12-28T12:25:47.835Z,5.54
2018-12-28T12:28:18.038Z,5.49
2018-12-28T12:30:46.820Z,5.45
2018-12-28T12:33:15.376Z,5.44
2018-12-28T12:35:43.933Z,5.43
2018-12-28T12:38:12.560Z,5.46
2018-12-28T12:40:41.108Z,5.46
2018-12-28T12:43:09.628Z,5.46
2018-12-28T12:45:38.194Z,5.45
2018-12-28T12:48:06.911Z,5.46
2018-12-28T12:50:35.750Z,5.46
2018-12-28T12:53:04.226Z,5.48
2018-12-28T12:55:32.809Z,5.44
2018-12-28T12:58:01.296Z,5.41
2018-12-28T13:00:30.057Z,5.39
2018-12-28T13:02:58.558Z,5.39
2018-12-28T13:05:27.028Z,5.41
2018-12-28T13:07:55.552Z,5.42
2018-12-28T13:10:24.044Z,5.48
2018-12-28T13:12:52.703Z,5.49
2018-12-28T13:15:21.170Z,5.55
2018-12-28T13:17:49.753Z,5.60
2018-12-28T13:20:18.427Z,5.63
2018-12-28T13:22:46.989Z,5.65
2018-12-28T13:25:15.981Z,5.68
2018-12-28T13:27:44.462Z,5.72
2018-12-28T13:30:13.018Z,5.75
2018-12-28T13:32:41.541Z,5.76
2018-12-28T13:35:10.109Z,5.75
2018-12-28T13:37:39.560Z,5.76
2018-12-28T13:40:08.575Z,5.75
2018-12-28T13:42:37.148Z,5.76
2018-12-28T13:45:06.758Z,5.76
2018-12-28T13:47:35.378Z,5.76
2018-12-28T13:50:03.929Z,5.77
2018-12-28T13:52:32.415Z,5.77
2018-12-28T13:55:01.055Z,5.75
2018-12-28T13:57:29.542Z,5.74
2018-12-28T13:59:59.148Z,5.74
2018-12-28T14:02:27.734Z,5.75
2018-12-28T14:04:56.214Z,5.75
2018-12-28T14:07:25.438Z,5.77
2018-12-28T14:09:54.021Z,5.76
2018-12-28T14:12:29.231Z,5.76
2018-12-28T14:14:53.795Z,5.78
2018-12-28T14:17:22.334Z,5.78
2018-12-28T14:19:51.053Z,5.77
2018-12-28T14:22:19.545Z,5.75
2018-12-28T14:24:48.049Z,5.77
2018-12-28T14:27:16.692Z,5.76
2018-12-28T14:29:45.332Z,5.73
2018-12-28T14:32:14.005Z,5.74
2018-12-28T14:34:42.577Z,5.70
2018-12-28T14:37:11.911Z,5.66
2018-12-28T14:39:43.523Z,5.65
2018-12-28T14:42:12.956Z,5.64
2018-12-28T14:44:41.824Z,5.65
2018-12-28T14:47:10.460Z,5.63
2018-12-28T14:49:39.005Z,5.58
2018-12-28T14:52:07.773Z,5.56
2018-12-28T14:54:36.595Z,5.57
2018-12-28T14:57:05.176Z,5.55
2018-12-28T14:59:33.881Z,5.52
2018-12-28T15:02:02.498Z,5.50
2018-12-28T15:04:31.034Z,5.52
2018-12-28T15:07:01.512Z,5.50
2018-12-28T15:09:30.453Z,5.50
2018-12-28T15:12:00.959Z,5.49
2018-12-28T15:14:37.144Z,5.47
2018-12-28T15:17:05.797Z,5.47
2018-12-28T15:19:36.261Z,5.48
2018-12-28T15:22:04.923Z,5.46
2018-12-28T15:24:33.570Z,5.43
2018-12-28T15:27:02.427Z,5.39
2018-12-28T15:29:30.909Z,5.34
2018-12-28T15:32:00.220Z,5.30
2018-12-28T15:34:28.753Z,5.27
2018-12-28T15:36:57.243Z,5.28
2018-12-28T15:39:27.036Z,5.29
2018-12-28T15:41:56.114Z,5.31
2018-12-28T15:44:24.749Z,5.33
2018-12-28T15:46:53.326Z,5.33
2018-12-28T15:49:21.961Z,5.34
2018-12-28T15:51:50.696Z,5.35
2018-12-28T15:54:20.334Z,5.35
2018-12-28T15:56:50.509Z,5.34
2018-12-28T15:59:19.103Z,5.33
2018-12-28T16:01:49.184Z,5.34
2018-12-28T16:04:17.912Z,5.34
2018-12-28T16:06:46.378Z,5.33
2018-12-28T16:09:14.844Z,5.32
2018-12-28T16:11:43.366Z,5.31
2018-12-28T16:14:11.926Z,5.30
2018-12-28T16:16:40.498Z,5.30
2018-12-28T16:19:08.970Z,5.31
2018-12-28T16:21:40.470Z,5.30
2018-12-28T16:24:09.969Z,5.31
2018-12-28T16:26:39.377Z,5.30
2018-12-28T16:29:08.101Z,5.28
2018-12-28T16:31:36.566Z,5.29
2018-12-28T16:34:05.126Z,5.29
2018-12-28T16:36:33.700Z,5.32
2018-12-28T16:39:02.171Z,5.32
2018-12-28T16:41:30.819Z,5.32
2018-12-28T16:43:59.370Z,5.35
2018-12-28T16:46:27.941Z,5.38
2018-12-28T16:48:56.505Z,5.41
2018-12-28T16:51:25.059Z,5.46
2018-12-28T16:53:53.601Z,5.48
2018-12-28T16:56:22.133Z,5.46
2018-12-28T16:58:50.673Z,5.47
2018-12-28T17:01:19.210Z,5.46
2018-12-28T17:03:47.697Z,5.43
2018-12-28T17:06:16.402Z,5.43
2018-12-28T17:08:44.882Z,5.41
2018-12-28T17:11:13.362Z,5.40
2018-12-28T17:13:41.970Z,5.40
2018-12-28T17:16:10.565Z,5.42
2018-12-28T17:18:39.036Z,5.43
2018-12-28T17:21:07.775Z,5.43
2018-12-28T17:23:36.322Z,5.41
2018-12-28T17:26:04.942Z,5.40
2018-12-28T17:28:33.519Z,5.40
2018-12-28T17:31:01.993Z,5.42
2018-12-28T17:33:30.665Z,5.42
2018-12-28T17:35:59.161Z,5.46
2018-12-28T17:38:27.647Z,5.48
2018-12-28T17:40:56.175Z,5.47
2018-12-28T17:43:24.654Z,5.46
2018-12-28T17:45:53.229Z,5.48
2018-12-28T17:48:21.715Z,5.48
2018-12-28T17:50:50.208Z,5.47
2018-12-28T17:53:18.822Z,5.48
2018-12-28T17:55:47.291Z,5.46
2018-12-28T17:58:15.942Z,5.45
2018-12-28T18:00:44.431Z,5.43
2018-12-28T18:03:12.913Z,5.44
2018-12-28T18:05:42.380Z,5.45
2018-12-28T18:08:10.850Z,5.45
2018-12-28T18:10:39.476Z,5.45
2018-12-28T18:13:07.953Z,5.45
2018-12-28T18:15:36.430Z,5.45
2018-12-28T18:18:04.958Z,5.43
2018-12-28T18:20:33.500Z,5.42
2018-12-28T18:23:02.081Z,5.42
2018-12-28T18:25:30.556Z,5.41
2018-12-28T18:27:59.031Z,5.40
2018-12-28T18:30:27.576Z,5.39
2018-12-28T18:32:56.254Z,5.40
2018-12-28T18:35:24.750Z,5.41
2018-12-28T18:37:53.268Z,5.40
2018-12-28T18:40:21.754Z,5.39
2018-12-28T18:42:50.298Z,5.38
2018-12-28T18:45:18.864Z,5.37
2018-12-28T18:47:47.406Z,5.34
2018-12-28T18:50:16.119Z,5.35
2018-12-28T18:52:44.598Z,5.35
2018-12-28T18:55:13.533Z,5.34
2018-12-28T18:57:43.272Z,5.33
2018-12-28T19:00:12.709Z,5.32
2018-12-28T19:02:41.236Z,5.29
2018-12-28T19:05:09.717Z,5.27
2018-12-28T19:07:38.344Z,5.25
2018-12-28T19:10:06.949Z,5.22
2018-12-28T19:12:36.506Z,5.18
2018-12-28T19:15:05.758Z,5.15
2018-12-28T19:17:34.244Z,5.13
2018-12-28T19:20:03.017Z,5.11
2018-12-28T19:22:31.583Z,5.08
2018-12-28T19:25:00.167Z,5.06
2018-12-28T19:27:28.679Z,5.03
2018-12-28T19:29:57.148Z,5.01
2018-12-28T19:32:25.870Z,5.00
2018-12-28T19:34:55.407Z,5.00
2018-12-28T19:37:24.023Z,4.99
2018-12-28T19:39:53.075Z,4.99
2018-12-28T19:42:21.619Z,4.99
2018-12-28T19:44:50.243Z,4.99
2018-12-28T19:47:18.606Z,4.98
2018-12-28T19:49:47.073Z,4.99
2018-12-28T19:52:15.997Z,4.98
2018-12-28T19:54:44.654Z,4.97
2018-12-28T19:57:13.265Z,4.96
2018-12-28T19:59:42.719Z,4.96
2018-12-28T20:02:11.230Z,4.96
2018-12-28T20:04:39.873Z,4.96
2018-12-28T20:07:08.445Z,4.96
2018-12-28T20:09:37.995Z,4.96
2018-12-28T20:12:07.666Z,4.98
2018-12-28T20:14:36.208Z,5.00
2018-12-28T20:17:04.842Z,5.00
2018-12-28T20:19:33.419Z,5.00
2018-12-28T20:22:01.985Z,4.98
2018-12-28T20:24:30.467Z,5.00
2018-12-28T20:26:59.059Z,5.00
2018-12-28T20:29:27.532Z,5.00
2018-12-28T20:31:56.331Z,5.00
2018-12-28T20:34:24.750Z,5.01
2018-12-28T20:36:53.240Z,5.00
2018-12-28T20:39:22.739Z,5.00
2018-12-28T20:41:51.213Z,4.99
2018-12-28T20:44:19.924Z,5.00
2018-12-28T20:46:48.450Z,4.98
2018-12-28T20:49:17.049Z,4.99
2018-12-28T20:51:45.582Z,4.98
2018-12-28T20:54:14.204Z,4.98
2018-12-28T20:56:42.879Z,4.96
2018-12-28T20:59:11.357Z,4.94
2018-12-28T21:01:39.919Z,4.95
2018-12-28T21:04:11.025Z,4.94
2018-12-28T21:06:39.591Z,4.91
2018-12-28T21:09:08.249Z,4.91
2018-12-28T21:11:37.028Z,4.90
2018-12-28T21:14:11.148Z,4.90
2018-12-28T21:16:36.079Z,4.89
2018-12-28T21:19:04.687Z,4.89
2018-12-28T21:21:33.294Z,4.89
2018-12-28T21:24:01.967Z,4.88
2018-12-28T21:26:30.456Z,4.89
2018-12-28T21:29:00.142Z,4.90
2018-12-28T21:31:28.703Z,4.90
2018-12-28T21:33:57.278Z,4.89
2018-12-28T21:36:25.923Z,4.88
2018-12-28T21:38:54.407Z,4.87
2018-12-28T21:41:23.067Z,4.83
2018-12-28T21:43:51.649Z,4.82
2018-12-28T21:46:20.139Z,4.75
2018-12-28T21:48:48.687Z,4.70
2018-12-28T21:51:17.163Z,4.68
2018-12-28T21:53:45.933Z,4.64
2018-12-28T21:56:14.406Z,4.62
2018-12-28T21:58:42.872Z,4.59
2018-12-28T22:01:11.541Z,4.56
2018-12-28T22:03:40.149Z,4.56
2018-12-28T22:06:08.865Z,4.54
2018-12-28T22:08:37.342Z,4.52
2018-12-28T22:11:05.821Z,4.51
2018-12-28T22:13:34.464Z,4.50
2018-12-28T22:16:02.941Z,4.49
2018-12-28T22:18:31.745Z,4.48
2018-12-28T22:21:00.263Z,4.44
2018-12-28T22:23:28.871Z,4.44
2018-12-28T22:25:57.435Z,4.41
2018-12-28T22:28:26.016Z,4.40
2018-12-28T22:30:54.996Z,4.37
2018-12-28T22:33:23.836Z,4.34
2018-12-28T22:35:52.445Z,4.31
2018-12-28T22:38:21.273Z,4.30
2018-12-28T22:40:49.976Z,4.29
2018-12-28T22:43:18.861Z,4.28
2018-12-28T22:45:47.374Z,4.26
2018-12-28T22:48:16.874Z,4.24
2018-12-28T22:50:45.424Z,4.23
2018-12-28T22:53:13.900Z,4.19
2018-12-28T22:55:42.578Z,4.17
2018-12-28T22:58:11.056Z,4.14
2018-12-28T23:00:44.022Z,4.13
2018-12-28T23:03:12.558Z,4.13
2018-12-28T23:05:41.943Z,4.09
2018-12-28T23:08:10.737Z,4.08
2018-12-28T23:10:42.831Z,4.09
2018-12-28T23:13:11.312Z,4.08
2018-12-28T23:15:40.010Z,4.09
2018-12-28T23:18:08.559Z,4.07
2018-12-28T23:20:37.117Z,4.05
2018-12-28T23:23:05.665Z,4.04
2018-12-28T23:25:35.343Z,4.03
2018-12-28T23:28:03.809Z,4.04
2018-12-28T23:30:32.298Z,4.04
2018-12-28T23:33:02.955Z,4.03
2018-12-28T23:35:31.413Z,4.01
2018-12-28T23:38:00.128Z,3.99
2018-12-28T23:40:28.679Z,3.97
2018-12-28T23:42:57.175Z,3.96
2018-12-28T23:45:25.710Z,3.95
2018-12-28T23:47:54.183Z,3.94
2018-12-28T23:50:23.652Z,3.92
2018-12-28T23:52:52.163Z,3.94
2018-12-28T23:55:20.634Z,3.95
2018-12-28T23:57:49.248Z,3.95
